createdAt,value
2023-06-07T00:01:44.996Z,96.00
2023-06-07T00:04:20.029Z,96.00
2023-06-07T00:07:10.902Z,96.00
2023-06-07T00:10:04.919Z,96.00
2023-06-07T00:13:01.812Z,96.10
2023-06-07T00:16:30.526Z,96.10
2023-06-07T00:19:01.320Z,96.40
2023-06-07T00:21:34.621Z,96.50
2023-06-07T00:24:02.441Z,96.50
2023-06-07T00:35:41.775Z,96.80
2023-06-07T00:41:09.628Z,96.80
2023-06-07T00:43:43.339Z,96.80
2023-06-07T00:46:24.539Z,96.80
2023-06-07T00:48:57.074Z,96.90
2023-06-07T00:51:27.686Z,96.90
2023-06-07T00:54:00.854Z,97.10
2023-06-07T00:56:34.550Z,97.00
2023-06-07T00:59:02.354Z,96.90
2023-06-07T01:01:34.680Z,97.00
2023-06-07T01:04:02.519Z,97.00
2023-06-07T01:06:32.380Z,97.20
2023-06-07T01:09:05.298Z,97.20
2023-06-07T01:11:36.293Z,97.10
2023-06-07T01:14:07.935Z,97.20
2023-06-07T01:16:49.625Z,97.30
2023-06-07T01:34:14.267Z,97.40
2023-06-07T01:39:43.579Z,97.50
2023-06-07T01:42:15.629Z,97.40
2023-06-07T01:44:50.143Z,97.50
2023-06-07T02:06:33.866Z,97.70
2023-06-07T02:09:09.867Z,97.80
2023-06-07T02:11:42.502Z,97.90
2023-06-07T02:14:11.193Z,97.80
2023-06-07T02:22:38.199Z,97.90
2023-06-07T02:25:15.406Z,98.00
2023-06-07T02:27:44.344Z,98.20
2023-06-07T02:35:57.215Z,98.20
2023-06-07T02:38:34.235Z,98.20
2023-06-07T02:41:02.622Z,98.20
2023-06-07T02:43:30.345Z,98.20
2023-06-07T02:45:58.391Z,98.30
2023-06-07T02:51:20.769Z,98.30
2023-06-07T02:53:50.427Z,98.20
2023-06-07T02:56:19.069Z,98.20
2023-06-07T02:58:49.208Z,98.20
2023-06-07T03:01:18.167Z,98.30
2023-06-07T03:03:54.436Z,98.30
2023-06-07T03:06:34.971Z,98.40
2023-06-07T03:09:02.567Z,98.30
2023-06-07T03:11:30.287Z,98.40
2023-06-07T03:14:00.736Z,98.30
2023-06-07T03:16:29.518Z,98.30
2023-06-07T03:19:01.575Z,98.30
2023-06-07T03:21:31.543Z,98.30
2023-06-07T03:23:59.220Z,98.40
2023-06-07T03:26:27.172Z,98.30
2023-06-07T03:28:57.866Z,98.30
2023-06-07T03:34:14.793Z,98.40
2023-06-07T03:36:44.255Z,98.50
2023-06-07T03:39:14.053Z,98.40
2023-06-07T03:41:41.470Z,98.50
2023-06-07T03:44:11.877Z,98.50
2023-06-07T03:46:39.073Z,98.60
2023-06-07T03:49:07.755Z,98.50
2023-06-07T03:51:40.950Z,98.50
2023-06-07T03:54:14.593Z,98.40
2023-06-07T03:56:42.362Z,98.40
2023-06-07T03:59:13.309Z,98.50
2023-06-07T04:01:55.710Z,98.50
2023-06-07T04:04:23.289Z,98.40
2023-06-07T04:06:55.138Z,98.40
2023-06-07T04:09:25.002Z,98.40
2023-06-07T04:11:53.590Z,98.20
2023-06-07T04:14:24.377Z,98.20
2023-06-07T04:17:13.436Z,98.20
2023-06-07T04:19:59.299Z,98.20
2023-06-07T04:22:27.430Z,98.20
2023-06-07T04:30:55.333Z,98.30
2023-06-07T04:39:27.803Z,98.00
2023-06-07T04:44:58.885Z,97.90
2023-06-07T05:06:12.035Z,96.60
2023-06-07T05:08:42.003Z,96.20
2023-06-07T05:11:15.290Z,96.20
2023-06-07T05:13:42.418Z,96.00
2023-06-07T05:16:17.053Z,95.70
2023-06-07T05:18:49.594Z,95.50
2023-06-07T05:21:17.658Z,95.50
2023-06-07T05:23:45.449Z,95.00
2023-06-07T05:26:12.469Z,95.20
2023-06-07T05:28:39.406Z,95.10
2023-06-07T05:31:07.784Z,94.70
2023-06-07T05:33:36.462Z,94.60
2023-06-07T05:36:03.924Z,94.20
2023-06-07T05:38:30.895Z,94.10
2023-06-07T05:40:57.979Z,93.90
2023-06-07T05:43:24.895Z,94.00
2023-06-07T05:45:51.831Z,93.80
2023-06-07T05:48:18.760Z,93.70
2023-06-07T05:50:45.813Z,93.40
2023-06-07T05:53:12.881Z,93.10
2023-06-07T05:55:41.119Z,92.80
2023-06-07T05:58:08.407Z,92.30
2023-06-07T06:00:35.719Z,92.40
2023-06-07T06:03:02.967Z,90.80
2023-06-07T06:05:30.558Z,91.20
2023-06-07T06:07:58.583Z,89.20
2023-06-07T06:10:26.898Z,85.90
2023-06-07T06:12:54.772Z,83.50
2023-06-07T06:15:21.928Z,80.60
2023-06-07T06:17:55.451Z,78.10
2023-06-07T06:20:23.249Z,78.50
2023-06-07T06:22:50.802Z,79.10
2023-06-07T06:25:33.733Z,78.30
2023-06-07T06:28:01.023Z,75.30
2023-06-07T06:30:28.854Z,73.60
2023-06-07T06:32:56.105Z,71.10
2023-06-07T06:35:23.220Z,70.10
2023-06-07T06:37:50.631Z,70.00
2023-06-07T06:40:21.252Z,66.90
2023-06-07T06:42:48.262Z,64.90
2023-06-07T06:45:16.448Z,67.60
2023-06-07T06:47:44.034Z,67.50
2023-06-07T06:50:30.361Z,65.80
2023-06-07T06:52:59.028Z,64.20
2023-06-07T06:55:26.132Z,64.30
2023-06-07T06:57:53.067Z,61.30
2023-06-07T07:00:20.403Z,62.50
2023-06-07T07:02:47.352Z,60.20
2023-06-07T07:05:15.561Z,59.30
2023-06-07T07:07:43.030Z,59.60
2023-06-07T07:10:10.402Z,59.50
2023-06-07T07:12:40.789Z,60.60
2023-06-07T07:15:07.990Z,62.20
2023-06-07T07:17:35.239Z,64.10
2023-06-07T07:20:02.186Z,63.70
2023-06-07T07:22:29.373Z,64.50
2023-06-07T07:24:59.355Z,65.70
2023-06-07T07:27:26.560Z,63.80
2023-06-07T07:29:53.520Z,63.60
2023-06-07T07:32:20.554Z,64.30
2023-06-07T07:34:48.966Z,62.10
2023-06-07T07:37:16.031Z,62.20
2023-06-07T07:39:43.030Z,65.50
2023-06-07T07:42:10.102Z,68.80
2023-06-07T07:44:38.216Z,69.40
2023-06-07T07:47:06.574Z,69.60
2023-06-07T07:49:41.507Z,71.00
2023-06-07T07:52:32.320Z,68.30
2023-06-07T07:54:59.627Z,64.10
2023-06-07T07:57:26.710Z,65.00
2023-06-07T07:59:53.988Z,65.40
2023-06-07T08:02:23.270Z,63.70
2023-06-07T08:04:50.416Z,63.20
2023-06-07T08:07:17.401Z,64.50
2023-06-07T08:09:44.365Z,61.60
2023-06-07T08:12:12.180Z,60.00
2023-06-07T08:14:39.126Z,57.70
2023-06-07T08:17:06.216Z,58.70
2023-06-07T08:19:33.290Z,55.60
2023-06-07T08:22:00.269Z,54.60
2023-06-07T08:24:27.340Z,56.60
2023-06-07T08:26:54.478Z,55.80
2023-06-07T08:29:23.086Z,57.30
2023-06-07T08:31:50.506Z,55.80
2023-06-07T08:34:31.846Z,54.80
2023-06-07T08:37:01.921Z,54.20
2023-06-07T08:39:28.866Z,54.60
2023-06-07T08:41:55.852Z,56.20
2023-06-07T08:44:23.162Z,54.90
2023-06-07T08:46:52.983Z,56.40
2023-06-07T08:49:21.249Z,56.00
2023-06-07T08:51:51.168Z,54.70
2023-06-07T08:54:23.708Z,53.70
2023-06-07T08:56:51.284Z,55.90
2023-06-07T08:59:20.194Z,55.60
2023-06-07T09:01:47.483Z,53.30
2023-06-07T09:04:17.131Z,52.90
2023-06-07T09:06:44.497Z,51.50
2023-06-07T09:09:11.462Z,52.80
2023-06-07T09:11:38.494Z,54.10
2023-06-07T09:14:07.358Z,54.40
2023-06-07T09:16:52.031Z,53.00
2023-06-07T09:19:41.268Z,53.80
2023-06-07T09:22:15.928Z,55.60
2023-06-07T09:24:43.611Z,54.90
2023-06-07T09:27:14.394Z,55.20
2023-06-07T09:29:43.696Z,53.80
2023-06-07T09:32:27.201Z,53.70
2023-06-07T09:35:16.165Z,53.50
2023-06-07T09:37:48.892Z,53.90
2023-06-07T09:40:16.436Z,53.70
2023-06-07T09:42:44.603Z,55.00
2023-06-07T09:45:12.470Z,54.30
2023-06-07T09:47:42.818Z,56.70
2023-06-07T09:50:11.888Z,57.90
2023-06-07T09:52:41.681Z,57.40
2023-06-07T09:55:26.485Z,57.90
2023-06-07T09:57:53.604Z,56.90
2023-06-07T10:00:21.932Z,56.00
2023-06-07T10:02:51.295Z,57.10
2023-06-07T10:05:22.756Z,57.70
2023-06-07T10:07:52.054Z,56.70
2023-06-07T10:10:23.546Z,56.10
2023-06-07T10:12:52.544Z,55.90
2023-06-07T10:15:26.736Z,58.10
2023-06-07T10:18:12.511Z,56.90
2023-06-07T10:20:53.469Z,54.10
2023-06-07T10:23:30.485Z,53.90
2023-06-07T10:26:06.190Z,54.40
2023-06-07T10:28:47.310Z,54.50
2023-06-07T10:31:17.656Z,54.60
2023-06-07T10:33:46.158Z,55.40
2023-06-07T10:36:17.410Z,55.20
2023-06-07T10:38:44.934Z,55.50
2023-06-07T10:41:15.314Z,56.70
2023-06-07T10:43:50.771Z,54.70
2023-06-07T10:46:24.746Z,55.30
2023-06-07T10:49:01.364Z,55.10
2023-06-07T10:51:49.651Z,54.60
2023-06-07T10:54:31.007Z,55.40
2023-06-07T10:57:01.498Z,56.90
2023-06-07T10:59:29.083Z,57.30
2023-06-07T11:02:23.283Z,55.30
2023-06-07T11:05:01.556Z,54.00
2023-06-07T11:07:33.032Z,55.50
2023-06-07T11:10:05.373Z,56.50
2023-06-07T11:12:42.518Z,58.50
2023-06-07T11:15:19.509Z,57.10
2023-06-07T11:18:00.709Z,56.30
2023-06-07T11:20:40.134Z,57.60
2023-06-07T11:23:22.637Z,57.40
2023-06-07T11:26:00.139Z,57.20
2023-06-07T11:28:29.310Z,57.30
2023-06-07T11:30:57.549Z,58.70
2023-06-07T11:33:25.093Z,59.00
2023-06-07T11:35:56.279Z,57.10
2023-06-07T11:38:24.430Z,58.20
2023-06-07T11:40:51.527Z,59.40
2023-06-07T11:43:24.428Z,59.00
2023-06-07T11:45:55.074Z,61.60
2023-06-07T11:48:26.009Z,60.60
2023-06-07T11:50:53.061Z,59.00
2023-06-07T11:53:20.191Z,57.40
2023-06-07T11:55:48.087Z,55.80
2023-06-07T11:58:15.023Z,57.90
2023-06-07T12:00:45.031Z,58.60
2023-06-07T12:03:12.862Z,59.10
2023-06-07T12:05:40.018Z,59.20
2023-06-07T12:08:16.620Z,59.70
2023-06-07T12:10:48.326Z,60.50
2023-06-07T12:13:19.896Z,59.90
2023-06-07T12:15:54.810Z,61.20
2023-06-07T12:18:31.492Z,65.00
2023-06-07T12:21:17.647Z,63.90
2023-06-07T12:23:53.589Z,64.70
2023-06-07T12:26:31.726Z,63.80
2023-06-07T12:29:02.694Z,63.80
2023-06-07T12:31:32.967Z,63.40
2023-06-07T12:34:03.015Z,62.40
2023-06-07T12:36:40.556Z,63.80
2023-06-07T12:39:10.661Z,65.50
2023-06-07T12:41:39.048Z,64.80
2023-06-07T12:44:07.973Z,65.70
2023-06-07T12:46:35.128Z,66.10
2023-06-07T12:49:04.696Z,67.20
2023-06-07T12:51:34.057Z,67.00
2023-06-07T12:54:01.599Z,66.90
2023-06-07T12:56:29.253Z,68.00
2023-06-07T12:58:56.210Z,68.40
2023-06-07T13:01:23.880Z,69.20
2023-06-07T13:03:51.420Z,68.70
2023-06-07T13:06:18.567Z,71.90
2023-06-07T13:08:45.767Z,69.20
2023-06-07T13:11:12.967Z,69.60
2023-06-07T13:13:40.052Z,70.40
2023-06-07T13:16:08.895Z,71.60
2023-06-07T13:18:40.792Z,70.90
2023-06-07T13:21:08.970Z,70.80
2023-06-07T13:23:36.080Z,70.00
2023-06-07T13:26:03.291Z,70.70
2023-06-07T13:28:30.308Z,70.10
2023-06-07T13:30:57.390Z,68.30
2023-06-07T13:33:24.575Z,70.80
2023-06-07T13:35:51.918Z,71.30
2023-06-07T13:38:20.044Z,70.30
2023-06-07T13:40:50.102Z,70.20
2023-06-07T13:43:30.930Z,71.90
2023-06-07T13:46:11.566Z,71.80
2023-06-07T13:48:41.501Z,71.40
2023-06-07T13:51:13.628Z,70.50
2023-06-07T13:53:44.725Z,71.20
2023-06-07T13:56:14.202Z,70.40
2023-06-07T13:58:42.287Z,71.10
2023-06-07T14:01:09.833Z,69.90
2023-06-07T14:03:37.444Z,71.00
2023-06-07T14:06:05.082Z,70.60
2023-06-07T14:08:32.721Z,70.00
2023-06-07T14:11:01.457Z,71.00
2023-06-07T14:13:28.679Z,71.60
2023-06-07T14:16:07.214Z,70.70
2023-06-07T14:18:34.742Z,71.40
2023-06-07T14:21:01.872Z,70.70
2023-06-07T14:23:29.074Z,71.20
2023-06-07T14:25:56.214Z,71.10
2023-06-07T14:28:23.442Z,71.80
2023-06-07T14:30:50.601Z,70.10
2023-06-07T14:33:19.169Z,70.20
2023-06-07T14:35:46.463Z,70.30
2023-06-07T14:38:14.837Z,72.00
2023-06-07T14:40:44.130Z,69.90
2023-06-07T14:43:11.123Z,70.60
2023-06-07T14:45:39.644Z,69.90
2023-06-07T14:48:06.971Z,70.60
2023-06-07T14:50:34.293Z,71.00
2023-06-07T14:53:01.667Z,70.50
2023-06-07T14:55:55.820Z,71.10
2023-06-07T14:58:26.412Z,72.20
2023-06-07T15:00:53.618Z,72.20
2023-06-07T15:03:21.791Z,69.90
2023-06-07T15:05:48.807Z,69.80
2023-06-07T15:08:18.427Z,70.20
2023-06-07T15:10:52.026Z,69.80
2023-06-07T15:13:19.947Z,70.10
2023-06-07T15:15:48.153Z,71.80
2023-06-07T15:18:17.755Z,71.10
2023-06-07T15:20:46.468Z,70.20
2023-06-07T15:23:13.700Z,70.20
2023-06-07T15:25:42.275Z,68.80
2023-06-07T15:28:10.200Z,68.10
2023-06-07T15:30:37.589Z,68.30
2023-06-07T15:33:05.205Z,69.00
2023-06-07T15:35:32.831Z,70.00
2023-06-07T15:38:00.196Z,70.30
2023-06-07T15:40:30.341Z,70.10
2023-06-07T15:43:02.820Z,70.40
2023-06-07T15:45:33.887Z,69.50
2023-06-07T15:48:03.078Z,69.90
2023-06-07T15:50:30.690Z,71.10
2023-06-07T15:52:59.070Z,72.50
2023-06-07T15:55:29.251Z,70.30
2023-06-07T15:57:56.715Z,71.50
2023-06-07T16:00:37.918Z,70.20
2023-06-07T16:03:06.042Z,70.60
2023-06-07T16:05:33.321Z,68.50
2023-06-07T16:08:04.793Z,70.90
2023-06-07T16:10:37.522Z,71.30
2023-06-07T16:13:06.650Z,70.60
2023-06-07T16:15:35.212Z,70.60
2023-06-07T16:18:03.384Z,70.90
2023-06-07T16:23:12.489Z,70.60
2023-06-07T16:25:42.065Z,71.10
2023-06-07T16:28:11.137Z,69.80
2023-06-07T16:31:54.589Z,70.70
2023-06-07T16:34:32.771Z,71.20
2023-06-07T16:37:08.492Z,70.30
2023-06-07T16:39:50.348Z,70.80
2023-06-07T16:42:22.553Z,70.70
2023-06-07T16:44:55.756Z,71.40
2023-06-07T16:47:37.724Z,73.00
2023-06-07T16:50:28.982Z,73.00
2023-06-07T16:53:04.109Z,73.70
2023-06-07T16:55:34.491Z,71.70
2023-06-07T16:58:13.219Z,72.00
2023-06-07T17:00:55.612Z,73.30
2023-06-07T17:03:23.773Z,71.70
2023-06-07T17:05:57.406Z,72.10
2023-06-07T17:08:28.898Z,72.60
2023-06-07T17:11:02.408Z,73.30
2023-06-07T17:13:48.951Z,73.80
2023-06-07T17:16:29.230Z,73.20
2023-06-07T17:19:05.463Z,73.80
2023-06-07T17:21:39.715Z,73.80
2023-06-07T17:24:10.791Z,73.20
2023-06-07T17:26:50.007Z,74.20
2023-06-07T17:29:29.699Z,74.80
2023-06-07T17:32:01.843Z,73.80
2023-06-07T17:34:31.381Z,75.00
2023-06-07T17:37:02.514Z,75.00
2023-06-07T17:39:39.018Z,75.60
2023-06-07T17:42:23.718Z,75.80
2023-06-07T17:44:57.640Z,76.80
2023-06-07T17:47:27.998Z,76.90
2023-06-07T17:49:55.558Z,77.90
2023-06-07T17:52:24.081Z,78.20
2023-06-07T17:59:05.948Z,76.60
2023-06-07T18:01:37.783Z,77.10
2023-06-07T18:04:07.088Z,77.90
2023-06-07T18:06:34.182Z,78.40
2023-06-07T18:09:02.505Z,79.20
2023-06-07T18:11:29.504Z,79.60
2023-06-07T18:13:57.535Z,79.70
2023-06-07T18:22:22.752Z,80.40
2023-06-07T18:24:49.801Z,80.30
2023-06-07T18:27:16.972Z,80.70
2023-06-07T18:29:43.966Z,80.60
2023-06-07T18:32:11.203Z,80.50
2023-06-07T18:34:38.281Z,80.00
2023-06-07T18:40:11.597Z,81.30
2023-06-07T18:42:39.172Z,82.00
2023-06-07T18:45:08.049Z,82.40
2023-06-07T18:47:38.408Z,82.80
2023-06-07T18:50:06.448Z,82.70
2023-06-07T18:52:35.210Z,82.60
2023-06-07T18:55:04.020Z,83.20
2023-06-07T18:57:31.537Z,83.30
2023-06-07T18:59:58.763Z,84.20
2023-06-07T19:02:26.052Z,83.50
2023-06-07T19:04:53.245Z,83.50
2023-06-07T19:07:20.361Z,84.00
2023-06-07T19:09:48.108Z,84.00
2023-06-07T19:12:15.373Z,84.20
2023-06-07T19:14:43.124Z,84.60
2023-06-07T19:17:12.167Z,84.70
2023-06-07T19:19:39.778Z,84.90
2023-06-07T19:22:10.059Z,85.00
2023-06-07T19:24:43.908Z,85.30
2023-06-07T19:27:15.004Z,86.50
2023-06-07T19:29:42.486Z,86.10
2023-06-07T19:32:10.669Z,86.30
2023-06-07T19:34:38.163Z,86.70
2023-06-07T19:37:06.634Z,87.00
2023-06-07T19:39:37.233Z,87.30
2023-06-07T19:42:07.361Z,87.60
2023-06-07T19:44:34.665Z,87.80
2023-06-07T19:47:02.505Z,88.10
2023-06-07T19:49:34.010Z,88.60
2023-06-07T19:52:01.239Z,88.90
2023-06-07T19:54:28.378Z,89.50
2023-06-07T19:56:56.498Z,89.80
2023-06-07T19:59:24.088Z,90.00
2023-06-07T20:01:52.231Z,90.20
2023-06-07T20:04:19.253Z,90.40
2023-06-07T20:06:46.200Z,90.40
2023-06-07T20:09:13.116Z,90.50
2023-06-07T20:11:40.063Z,90.70
2023-06-07T20:14:07.182Z,90.80
2023-06-07T20:16:34.799Z,90.90
2023-06-07T20:19:01.912Z,91.10
2023-06-07T20:21:29.064Z,91.20
2023-06-07T20:23:56.193Z,91.30
2023-06-07T20:26:23.292Z,91.50
2023-06-07T20:28:50.339Z,91.60
2023-06-07T20:31:17.363Z,91.90
2023-06-07T20:33:45.100Z,92.10
2023-06-07T20:36:12.424Z,92.10
2023-06-07T20:38:39.425Z,92.30
2023-06-07T20:41:06.508Z,92.30
2023-06-07T20:43:33.402Z,92.60
2023-06-07T20:46:00.542Z,92.80
2023-06-07T20:48:27.466Z,93.10
2023-06-07T20:50:56.334Z,93.10
2023-06-07T20:53:23.316Z,93.40
2023-06-07T20:55:50.373Z,93.50
2023-06-07T20:58:17.654Z,93.70
2023-06-07T21:00:45.693Z,93.80
2023-06-07T21:03:13.039Z,93.90
2023-06-07T21:05:40.103Z,94.40
2023-06-07T21:08:07.235Z,94.10
2023-06-07T21:10:35.955Z,94.10
2023-06-07T21:13:03.214Z,94.20
2023-06-07T21:15:33.323Z,94.30
2023-06-07T21:18:00.374Z,94.40
2023-06-07T21:20:27.310Z,94.50
2023-06-07T21:22:54.415Z,94.70
2023-06-07T21:25:21.539Z,94.70
2023-06-07T21:27:49.794Z,94.80
2023-06-07T21:30:16.927Z,95.00
2023-06-07T21:32:43.908Z,95.00
2023-06-07T21:35:11.370Z,95.10
2023-06-07T21:37:38.381Z,95.30
2023-06-07T21:40:06.287Z,95.40
2023-06-07T21:42:35.709Z,95.40
2023-06-07T21:45:04.570Z,95.50
2023-06-07T21:47:31.566Z,95.50
2023-06-07T21:49:58.961Z,95.50
2023-06-07T21:52:28.433Z,95.60
2023-06-07T21:54:55.453Z,95.70
2023-06-07T21:57:22.404Z,95.70
2023-06-07T21:59:49.324Z,95.70
2023-06-07T22:02:16.244Z,95.90
2023-06-07T22:04:43.218Z,95.90
2023-06-07T22:07:10.139Z,95.90
2023-06-07T22:09:37.573Z,96.20
2023-06-07T22:12:05.190Z,96.10
2023-06-07T22:14:34.091Z,96.10
2023-06-07T22:17:01.312Z,96.30
2023-06-07T22:19:28.500Z,96.10
2023-06-07T22:21:55.897Z,96.20
2023-06-07T22:24:25.179Z,96.20
2023-06-07T22:27:14.932Z,96.40
2023-06-07T22:29:47.436Z,96.20
2023-06-07T22:32:16.183Z,96.50
2023-06-07T22:34:44.433Z,96.40
2023-06-07T22:37:14.669Z,96.40
2023-06-07T22:39:46.651Z,96.50
2023-06-07T22:42:14.121Z,96.40
2023-06-07T22:44:41.456Z,96.60
2023-06-07T22:47:10.123Z,96.50
2023-06-07T22:49:44.561Z,96.50
2023-06-07T22:52:12.244Z,96.60
2023-06-07T22:54:39.378Z,96.60
2023-06-07T22:57:07.550Z,96.50
2023-06-07T22:59:34.849Z,96.60
2023-06-07T23:02:02.214Z,96.70
2023-06-07T23:04:30.630Z,96.70
2023-06-07T23:07:01.814Z,96.90
2023-06-07T23:09:28.924Z,96.90
2023-06-07T23:12:00.408Z,96.90
2023-06-07T23:14:30.438Z,96.90
2023-06-07T23:17:00.408Z,96.90
2023-06-07T23:19:28.279Z,97.00
2023-06-07T23:21:57.406Z,97.00
2023-06-07T23:24:26.620Z,97.20
2023-06-07T23:26:56.352Z,97.10
2023-06-07T23:29:23.232Z,97.10
2023-06-07T23:31:51.006Z,96.90
2023-06-07T23:34:17.960Z,97.10
2023-06-07T23:36:44.899Z,97.00
2023-06-07T23:39:12.331Z,97.20
2023-06-07T23:41:40.921Z,97.20
2023-06-07T23:44:27.399Z,97.20
2023-06-07T23:46:55.642Z,97.20
2023-06-07T23:49:28.378Z,97.30
2023-06-07T23:51:55.406Z,97.30
2023-06-07T23:54:22.759Z,97.30
2023-06-07T23:56:50.695Z,97.30
2023-06-07T23:59:18.141Z,97.70
